Floodwood, Minnesota
Current Conditions -  °F | °C
As of 5:36 PM on Thursday 18 Dec 2014 (Local Time) from KCOQ Reporting Station
Overcast Overcast  
Wind Chill: 23°   Ceiling: 1700
Heat Index: 23°   Visibility: 10mi
Dew Point: 19°   Wind: 0mph
Humidity: 86%   Direction: NA
Pressure: 30.22"   Gusts: NA
Location:  46.93°N, 92.92°W
Report Text: KCOQ 182336Z AUTO 00000KT 10SM OVC017 M05/M07 A3022 RMK AO2
Loading
Personal Weather Stations






























Interactive Weather Map New forecast layout! Learn more

10-Day Weather Forecast

Advertisements
Track Severe Weather on mobile